Musselfork, Missouri
Current Conditions -  °F | °C
As of 3:55 AM on Sunday 25 Jan 2015 (Local Time) from KVER Reporting Station
Overcast Overcast  
Wind Chill:   Ceiling: 1200
Heat Index:   Visibility: 10mi
Dew Point:   Wind: 7mph
Humidity: 97%   Direction: 260°W
Pressure: 29.59"   Gusts: NA
Location:  39.4953°N, 92.9281°W
Report Text: KVER 250955Z AUTO 26006KT 10SM BKN012 BKN018 OVC025 08/07 A2959 RMK AO2 T00750071
Loading
Personal Weather Stations






























Interactive Weather Map New forecast layout! Learn more

10-Day Weather Forecast

Advertisements
Track Severe Weather on mobile